createdAt,value
2022-08-29T00:00:47.302Z,99963.48
2022-08-29T00:03:13.887Z,99965.41
2022-08-29T00:05:42.007Z,99958.66
2022-08-29T00:08:09.567Z,99957.44
2022-08-29T00:10:37.835Z,99961.19
2022-08-29T00:13:07.180Z,99964.91
2022-08-29T00:15:44.481Z,99966.04
2022-08-29T00:18:13.406Z,99969.55
2022-08-29T00:20:40.451Z,99972.81
2022-08-29T00:23:07.230Z,99969.52
2022-08-29T00:25:33.885Z,99967.75
2022-08-29T00:28:00.586Z,99965.53
2022-08-29T00:30:27.345Z,99961.65
2022-08-29T00:32:53.862Z,99964.24
2022-08-29T00:35:23.716Z,99965.08
2022-08-29T00:37:54.041Z,99965.92
2022-08-29T00:40:27.916Z,99965.73
2022-08-29T00:42:54.395Z,99963.26
2022-08-29T00:45:21.937Z,99965.30
2022-08-29T00:47:57.423Z,99959.83
2022-08-29T00:50:42.493Z,99959.77
2022-08-29T00:53:12.353Z,99960.52
2022-08-29T00:55:40.679Z,99964.90
2022-08-29T00:58:13.366Z,99963.75
2022-08-29T01:00:43.901Z,99965.77
2022-08-29T01:03:10.319Z,99965.94
2022-08-29T01:05:36.904Z,99972.15
2022-08-29T01:08:04.596Z,99971.63
2022-08-29T01:10:49.417Z,99968.48
2022-08-29T01:13:16.095Z,99967.66
2022-08-29T01:15:45.222Z,99971.61
2022-08-29T01:18:14.634Z,99963.70
2022-08-29T01:21:00.909Z,99966.91
2022-08-29T01:23:40.880Z,99964.53
2022-08-29T01:26:10.452Z,99962.02
2022-08-29T01:28:40.566Z,99957.64
2022-08-29T01:31:13.442Z,99956.27
2022-08-29T01:33:52.588Z,99953.41
2022-08-29T01:36:21.904Z,99949.95
2022-08-29T01:38:49.227Z,99946.50
2022-08-29T01:41:18.237Z,99949.33
2022-08-29T01:43:48.035Z,99943.64
2022-08-29T01:46:16.391Z,99948.76
2022-08-29T01:48:44.276Z,99948.14
2022-08-29T01:51:12.525Z,99952.98
2022-08-29T01:53:40.260Z,99956.33
2022-08-29T01:56:35.277Z,99956.55
2022-08-29T01:59:04.908Z,99960.20
2022-08-29T02:01:37.792Z,99964.10
2022-08-29T02:04:06.047Z,99965.63
2022-08-29T02:06:32.615Z,99964.63
2022-08-29T02:08:59.530Z,99965.77
2022-08-29T02:11:26.407Z,99963.48
2022-08-29T02:13:54.821Z,99962.83
2022-08-29T02:16:26.701Z,99962.98
2022-08-29T02:18:54.262Z,99965.25
2022-08-29T02:21:22.698Z,99967.42
2022-08-29T02:23:49.686Z,99964.84
2022-08-29T02:26:17.367Z,99972.56
2022-08-29T02:28:44.899Z,99972.55
2022-08-29T02:31:11.211Z,99974.70
2022-08-29T02:33:38.474Z,99975.48
2022-08-29T02:36:06.610Z,99978.18
2022-08-29T02:38:33.644Z,99981.33
2022-08-29T02:41:00.413Z,99982.17
2022-08-29T02:43:27.197Z,99983.58
2022-08-29T02:45:54.341Z,99984.78
2022-08-29T02:48:20.867Z,99989.52
2022-08-29T02:50:50.605Z,99989.88
2022-08-29T02:53:19.474Z,99989.98
2022-08-29T02:55:46.931Z,99988.34
2022-08-29T02:58:15.079Z,99991.64
2022-08-29T03:00:42.071Z,99993.81
2022-08-29T03:03:09.568Z,99994.66
2022-08-29T03:05:36.856Z,99993.48
2022-08-29T03:08:05.945Z,99992.76
2022-08-29T03:10:32.298Z,99989.82
2022-08-29T03:12:58.739Z,99992.92
2022-08-29T03:15:25.557Z,99993.05
2022-08-29T03:17:53.965Z,99995.46
2022-08-29T03:20:21.836Z,99995.79
2022-08-29T03:22:48.591Z,100000.11
2022-08-29T03:25:16.306Z,100001.52
2022-08-29T03:27:42.759Z,100005.31
2022-08-29T03:30:12.291Z,100008.12
2022-08-29T03:32:39.669Z,100012.06
2022-08-29T03:35:08.048Z,100009.53
2022-08-29T03:37:35.086Z,100012.98
2022-08-29T03:40:04.175Z,100013.45
2022-08-29T03:42:30.584Z,100013.00
2022-08-29T03:44:57.115Z,100017.39
2022-08-29T03:47:23.749Z,100019.36
2022-08-29T03:49:50.125Z,100022.14
2022-08-29T03:52:16.587Z,100025.16
2022-08-29T03:54:42.888Z,100034.07
2022-08-29T03:57:09.793Z,100035.95
2022-08-29T03:59:36.228Z,100038.23
2022-08-29T04:02:03.023Z,100036.70
2022-08-29T04:04:47.742Z,100043.11
2022-08-29T04:07:14.352Z,100041.27
2022-08-29T04:09:41.230Z,100046.94
2022-08-29T04:12:10.744Z,100046.30
2022-08-29T04:14:37.992Z,100049.66
2022-08-29T04:17:04.586Z,100052.23
2022-08-29T04:19:31.572Z,100049.74
2022-08-29T04:21:58.098Z,100054.58
2022-08-29T04:24:24.688Z,100058.98
2022-08-29T04:26:51.130Z,100063.76
2022-08-29T04:29:18.231Z,100065.88
2022-08-29T04:31:44.784Z,100069.17
2022-08-29T04:34:12.352Z,100072.68
2022-08-29T04:36:41.204Z,100075.96
2022-08-29T04:39:08.912Z,100074.27
2022-08-29T04:41:36.195Z,100074.28
2022-08-29T04:44:04.061Z,100073.77
2022-08-29T04:46:31.272Z,100074.19
2022-08-29T04:49:03.383Z,100078.27
2022-08-29T04:51:33.704Z,100081.74
2022-08-29T04:54:03.912Z,100083.27
2022-08-29T04:56:30.692Z,100084.13
2022-08-29T04:58:57.415Z,100086.59
2022-08-29T05:01:24.864Z,100086.59
2022-08-29T05:03:53.613Z,100087.17
2022-08-29T05:06:22.681Z,100082.39
2022-08-29T05:08:59.009Z,100086.08
2022-08-29T05:11:29.715Z,100084.98
2022-08-29T05:13:56.987Z,100089.26
2022-08-29T05:16:23.402Z,100088.02
2022-08-29T05:18:49.872Z,100087.80
2022-08-29T05:21:26.432Z,100091.49
2022-08-29T05:23:55.643Z,100092.04
2022-08-29T05:26:24.969Z,100092.66
2022-08-29T05:28:51.460Z,100094.64
2022-08-29T05:31:21.507Z,100094.71
2022-08-29T05:33:47.960Z,100096.52
2022-08-29T05:36:14.558Z,100095.54
2022-08-29T05:38:40.878Z,100099.13
2022-08-29T05:41:07.432Z,100101.63
2022-08-29T05:43:34.429Z,100104.04
2022-08-29T05:46:05.679Z,100103.36
2022-08-29T05:48:33.217Z,100103.08
2022-08-29T05:51:00.071Z,100106.56
2022-08-29T05:53:27.015Z,100109.98
2022-08-29T05:55:54.090Z,100109.63
2022-08-29T05:58:20.717Z,100107.70
2022-08-29T06:00:48.702Z,100109.48
2022-08-29T06:03:16.018Z,100109.88
2022-08-29T06:05:42.663Z,100111.41
2022-08-29T06:08:09.151Z,100115.48
2022-08-29T06:10:40.683Z,100110.71
2022-08-29T06:13:07.390Z,100116.44
2022-08-29T06:15:33.782Z,100117.91
2022-08-29T06:18:00.132Z,100121.67
2022-08-29T06:20:26.652Z,100121.86
2022-08-29T06:22:53.154Z,100127.55
2022-08-29T06:25:38.423Z,100131.38
2022-08-29T06:28:06.946Z,100134.52
2022-08-29T06:30:33.789Z,100137.02
2022-08-29T06:33:01.366Z,100140.36
2022-08-29T06:35:28.064Z,100144.34
2022-08-29T06:37:54.700Z,100152.12
2022-08-29T06:40:21.182Z,100153.80
2022-08-29T06:42:47.638Z,100156.66
2022-08-29T06:45:13.988Z,100160.35
2022-08-29T06:47:40.473Z,100164.30
2022-08-29T06:50:07.197Z,100164.34
2022-08-29T06:52:33.608Z,100169.46
2022-08-29T06:55:02.730Z,100172.57
2022-08-29T06:57:29.093Z,100180.70
2022-08-29T06:59:55.560Z,100182.45
2022-08-29T07:02:22.095Z,100186.36
2022-08-29T07:04:48.534Z,100187.88
2022-08-29T07:07:15.007Z,100193.34
2022-08-29T07:09:41.517Z,100192.61
2022-08-29T07:12:08.020Z,100196.19
2022-08-29T07:14:34.357Z,100197.58
2022-08-29T07:17:01.709Z,100197.58
2022-08-29T07:19:28.060Z,100202.77
2022-08-29T07:21:57.959Z,100206.12
2022-08-29T07:24:25.621Z,100213.51
2022-08-29T07:26:52.056Z,100215.91
2022-08-29T07:29:20.318Z,100219.48
2022-08-29T07:31:47.035Z,100224.96
2022-08-29T07:34:13.425Z,100228.27
2022-08-29T07:36:39.918Z,100230.16
2022-08-29T07:39:10.764Z,100236.14
2022-08-29T07:41:38.722Z,100242.59
2022-08-29T07:44:05.064Z,100245.34
2022-08-29T07:46:31.796Z,100246.36
2022-08-29T07:48:59.777Z,100249.21
2022-08-29T07:51:26.903Z,100255.48
2022-08-29T07:53:53.964Z,100255.41
2022-08-29T07:56:24.591Z,100251.51
2022-08-29T07:58:52.257Z,100254.69
2022-08-29T08:01:21.516Z,100254.10
2022-08-29T08:03:49.488Z,100252.88
2022-08-29T08:06:17.691Z,100255.17
2022-08-29T08:08:44.182Z,100260.78
2022-08-29T08:11:10.570Z,100259.61
2022-08-29T08:13:38.159Z,100262.64
2022-08-29T08:16:07.554Z,100267.29
2022-08-29T08:18:35.697Z,100267.27
2022-08-29T08:21:03.156Z,100268.15
2022-08-29T08:23:29.730Z,100268.66
2022-08-29T08:25:56.168Z,100270.23
2022-08-29T08:28:22.940Z,100269.56
2022-08-29T08:30:49.340Z,100267.52
2022-08-29T08:33:16.932Z,100270.67
2022-08-29T08:35:46.796Z,100277.85
2022-08-29T08:38:14.007Z,100274.30
2022-08-29T08:41:03.569Z,100280.59
2022-08-29T08:43:54.587Z,100274.20
2022-08-29T08:46:35.696Z,100273.52
2022-08-29T08:49:06.109Z,100268.04
2022-08-29T08:51:34.811Z,100267.38
2022-08-29T08:54:02.841Z,100274.06
2022-08-29T08:56:35.562Z,100275.27
2022-08-29T08:59:15.504Z,100286.42
2022-08-29T09:01:56.434Z,100283.44
2022-08-29T09:05:06.401Z,100285.27
2022-08-29T09:08:00.055Z,100289.16
2022-08-29T09:10:44.156Z,100286.86
2022-08-29T09:13:30.222Z,100290.55
2022-08-29T09:16:00.282Z,100292.06
2022-08-29T09:18:35.439Z,100288.86
2022-08-29T09:21:23.740Z,100290.73
2022-08-29T09:23:56.420Z,100290.17
2022-08-29T09:26:24.329Z,100291.47
2022-08-29T09:28:52.067Z,100294.73
2022-08-29T09:31:33.750Z,100299.02
2022-08-29T09:34:11.758Z,100298.58
2022-08-29T09:36:51.708Z,100297.50
2022-08-29T09:39:28.677Z,100292.98
2022-08-29T09:42:17.153Z,100296.42
2022-08-29T09:44:56.733Z,100295.55
2022-08-29T09:47:25.412Z,100296.67
2022-08-29T09:50:17.595Z,100299.21
2022-08-29T09:52:58.614Z,100300.50
2022-08-29T09:55:39.512Z,100297.25
2022-08-29T09:58:29.475Z,100295.44
2022-08-29T10:01:04.764Z,100295.26
2022-08-29T10:03:39.143Z,100293.25
2022-08-29T10:06:17.634Z,100292.13
2022-08-29T10:09:01.152Z,100292.65
2022-08-29T10:11:44.080Z,100293.56
2022-08-29T10:14:34.226Z,100289.47
2022-08-29T10:17:29.500Z,100291.91
2022-08-29T10:19:57.204Z,100287.95
2022-08-29T10:22:54.043Z,100296.76
2022-08-29T10:25:33.842Z,100298.48
2022-08-29T10:28:06.871Z,100299.48
2022-08-29T10:31:08.905Z,100301.30
2022-08-29T10:34:11.349Z,100308.09
2022-08-29T10:36:40.731Z,100301.42
2022-08-29T10:39:11.427Z,100302.73
2022-08-29T10:41:51.099Z,100298.29
2022-08-29T10:44:50.176Z,100291.98
2022-08-29T10:47:30.549Z,100292.95
2022-08-29T10:50:21.745Z,100295.51
2022-08-29T10:53:17.571Z,100295.34
2022-08-29T10:55:49.184Z,100297.56
2022-08-29T10:58:51.099Z,100291.15
2022-08-29T11:01:22.591Z,100295.10
2022-08-29T11:03:58.659Z,100297.44
2022-08-29T11:06:30.486Z,100299.05
2022-08-29T11:09:12.909Z,100297.81
2022-08-29T11:11:45.924Z,100300.21
2022-08-29T11:14:22.819Z,100303.25
2022-08-29T11:16:52.558Z,100305.34
2022-08-29T11:19:46.283Z,100305.20
2022-08-29T11:22:50.867Z,100298.50
2022-08-29T11:25:20.566Z,100298.20
2022-08-29T11:27:48.243Z,100299.84
2022-08-29T11:30:24.182Z,100295.68
2022-08-29T11:32:55.060Z,100294.99
2022-08-29T11:35:49.175Z,100302.27
2022-08-29T11:38:25.775Z,100295.41
2022-08-29T11:41:27.182Z,100300.67
2022-08-29T11:44:02.150Z,100303.43
2022-08-29T11:46:53.666Z,100300.63
2022-08-29T11:49:31.176Z,100306.00
2022-08-29T11:52:14.319Z,100305.89
2022-08-29T11:54:45.281Z,100313.98
2022-08-29T11:57:12.908Z,100309.33
2022-08-29T11:59:48.551Z,100309.98
2022-08-29T12:02:28.539Z,100309.32
2022-08-29T12:05:00.382Z,100311.48
2022-08-29T12:07:50.154Z,100311.25
2022-08-29T12:10:23.884Z,100310.13
2022-08-29T12:13:00.884Z,100314.25
2022-08-29T12:15:35.337Z,100313.17
2022-08-29T12:18:23.056Z,100323.50
2022-08-29T12:20:55.859Z,100318.89
2022-08-29T12:23:31.351Z,100317.48
2022-08-29T12:26:22.946Z,100316.81
2022-08-29T12:28:59.898Z,100325.00
2022-08-29T12:32:18.246Z,100321.27
2022-08-29T12:35:16.957Z,100321.99
2022-08-29T12:38:13.907Z,100319.85
2022-08-29T12:40:50.757Z,100324.58
2022-08-29T12:43:27.536Z,100327.75
2022-08-29T12:45:56.690Z,100326.23
2022-08-29T12:48:34.033Z,100330.17
2022-08-29T12:51:04.539Z,100329.92
2022-08-29T12:53:35.018Z,100329.27
2022-08-29T12:56:05.044Z,100327.73
2022-08-29T12:58:43.515Z,100327.52
2022-08-29T13:01:38.088Z,100328.92
2022-08-29T13:04:12.119Z,100332.20
2022-08-29T13:07:07.557Z,100334.71
2022-08-29T13:09:43.488Z,100335.95
2022-08-29T13:12:20.162Z,100333.09
2022-08-29T13:15:03.844Z,100332.63
2022-08-29T13:17:40.254Z,100323.83
2022-08-29T13:20:40.321Z,100328.79
2022-08-29T13:23:33.934Z,100333.08
2022-08-29T13:26:09.167Z,100329.69
2022-08-29T13:28:53.467Z,100329.41
2022-08-29T13:31:33.310Z,100328.45
2022-08-29T13:34:04.658Z,100323.06
2022-08-29T13:36:46.240Z,100324.28
2022-08-29T13:39:17.252Z,100328.25
2022-08-29T13:41:51.010Z,100328.19
2022-08-29T13:44:19.983Z,100322.34
2022-08-29T13:46:48.883Z,100323.16
2022-08-29T13:49:21.537Z,100320.89
2022-08-29T13:51:50.117Z,100315.05
2022-08-29T13:54:17.863Z,100317.46
2022-08-29T13:56:49.908Z,100316.61
2022-08-29T13:59:21.235Z,100314.19
2022-08-29T14:04:39.813Z,100320.48
2022-08-29T14:07:24.539Z,100316.76
2022-08-29T14:09:52.643Z,100313.61
2022-08-29T14:12:21.501Z,100311.64
2022-08-29T14:15:09.038Z,100313.72
2022-08-29T14:17:40.669Z,100316.78
2022-08-29T14:20:09.991Z,100318.23
2022-08-29T14:22:38.505Z,100321.48
2022-08-29T14:25:08.822Z,100324.69
2022-08-29T14:27:37.230Z,100326.52
2022-08-29T14:30:06.912Z,100327.12
2022-08-29T14:32:35.663Z,100325.49
2022-08-29T14:35:05.056Z,100322.04
2022-08-29T14:37:34.435Z,100318.70
2022-08-29T14:40:02.458Z,100318.06
2022-08-29T14:42:31.793Z,100314.77
2022-08-29T14:44:59.609Z,100314.41
2022-08-29T14:47:27.324Z,100314.19
2022-08-29T14:49:54.994Z,100315.61
2022-08-29T14:52:22.786Z,100316.95
2022-08-29T14:54:50.447Z,100317.05
2022-08-29T14:57:18.438Z,100306.32
2022-08-29T14:59:48.013Z,100309.20
2022-08-29T15:02:15.985Z,100311.37
2022-08-29T15:04:46.237Z,100314.98
2022-08-29T15:07:14.041Z,100311.46
2022-08-29T15:09:43.840Z,100312.86
2022-08-29T15:12:13.357Z,100311.12
2022-08-29T15:14:41.523Z,100310.45
2022-08-29T15:17:09.988Z,100313.73
2022-08-29T15:20:33.649Z,100316.58
2022-08-29T15:22:26.374Z,100313.02
2022-08-29T15:24:54.349Z,100310.84
2022-08-29T15:27:27.306Z,100312.56
2022-08-29T15:29:58.974Z,100310.40
2022-08-29T15:32:26.631Z,100302.77
2022-08-29T15:34:54.523Z,100303.04
2022-08-29T15:37:22.669Z,100299.35
2022-08-29T15:39:54.804Z,100300.79
2022-08-29T15:42:29.659Z,100299.52
2022-08-29T15:44:59.010Z,100300.33
2022-08-29T15:47:27.631Z,100296.42
2022-08-29T15:49:55.646Z,100294.12
2022-08-29T15:52:23.586Z,100292.98
2022-08-29T15:54:53.900Z,100293.09
2022-08-29T15:57:21.861Z,100291.94
2022-08-29T15:59:58.465Z,100293.88
2022-08-29T16:02:28.198Z,100294.94
2022-08-29T16:04:57.379Z,100297.54
2022-08-29T16:07:29.287Z,100296.05
2022-08-29T16:10:00.334Z,100295.85
2022-08-29T16:12:30.939Z,100293.76
2022-08-29T16:15:00.721Z,100299.92
2022-08-29T16:17:31.102Z,100297.15
2022-08-29T16:19:59.917Z,100295.30
2022-08-29T16:22:28.614Z,100296.72
2022-08-29T16:24:56.529Z,100297.21
2022-08-29T16:27:24.634Z,100303.24
2022-08-29T16:29:52.791Z,100299.66
2022-08-29T16:32:20.987Z,100296.64
2022-08-29T16:34:49.319Z,100298.28
2022-08-29T16:37:17.479Z,100296.99
2022-08-29T16:39:45.907Z,100298.86
2022-08-29T16:42:14.049Z,100302.95
2022-08-29T16:44:41.954Z,100301.58
2022-08-29T16:47:11.090Z,100301.05
2022-08-29T16:49:38.684Z,100302.77
2022-08-29T16:52:06.480Z,100303.48
2022-08-29T16:54:34.617Z,100308.48
2022-08-29T16:57:02.370Z,100308.08
2022-08-29T16:59:30.147Z,100312.05
2022-08-29T17:01:57.876Z,100315.23
2022-08-29T17:04:28.622Z,100313.61
2022-08-29T17:06:58.084Z,100315.71
2022-08-29T17:09:26.361Z,100316.43
2022-08-29T17:11:54.703Z,100315.92
2022-08-29T17:14:25.613Z,100321.04
2022-08-29T17:16:55.771Z,100322.17
2022-08-29T17:19:24.021Z,100322.30
2022-08-29T17:21:52.033Z,100323.40
2022-08-29T17:24:19.789Z,100323.29
2022-08-29T17:26:49.430Z,100322.26
2022-08-29T17:29:17.498Z,100324.23
2022-08-29T17:31:45.239Z,100325.01
2022-08-29T17:34:14.444Z,100325.98
2022-08-29T17:36:44.262Z,100327.60
2022-08-29T17:39:12.327Z,100324.65
2022-08-29T17:41:40.496Z,100327.50
2022-08-29T17:44:10.820Z,100331.52
2022-08-29T17:46:38.583Z,100331.89
2022-08-29T17:49:10.285Z,100332.76
2022-08-29T17:51:39.331Z,100336.89
2022-08-29T17:54:12.509Z,100335.10
2022-08-29T17:56:57.393Z,100340.75
2022-08-29T17:59:27.393Z,100335.63
2022-08-29T18:01:56.654Z,100338.38
2022-08-29T18:04:26.258Z,100338.26
2022-08-29T18:06:55.316Z,100342.32
2022-08-29T18:09:23.316Z,100345.83
2022-08-29T18:11:52.632Z,100346.95
2022-08-29T18:14:23.709Z,100349.23
2022-08-29T18:16:52.745Z,100351.32
2022-08-29T18:19:22.162Z,100353.00
2022-08-29T18:21:50.377Z,100354.99
2022-08-29T18:24:18.385Z,100356.28
2022-08-29T18:26:49.246Z,100355.86
2022-08-29T18:29:17.681Z,100362.85
2022-08-29T18:31:45.564Z,100368.17
2022-08-29T18:34:15.194Z,100367.34
2022-08-29T18:36:44.360Z,100369.54
2022-08-29T18:39:13.296Z,100372.02
2022-08-29T18:41:41.373Z,100377.30
2022-08-29T18:44:10.212Z,100377.91
2022-08-29T18:46:48.239Z,100377.86
2022-08-29T18:49:17.322Z,100381.91
2022-08-29T18:51:45.546Z,100380.23
2022-08-29T18:54:18.803Z,100381.46
2022-08-29T18:56:47.058Z,100384.84
2022-08-29T18:59:14.790Z,100385.09
2022-08-29T19:01:42.851Z,100383.81
2022-08-29T19:04:10.723Z,100388.23
2022-08-29T19:06:38.530Z,100393.58
2022-08-29T19:09:06.277Z,100393.32
2022-08-29T19:11:33.955Z,100390.67
2022-08-29T19:14:01.841Z,100395.83
2022-08-29T19:16:30.917Z,100395.92
2022-08-29T19:18:59.169Z,100397.30
2022-08-29T19:21:26.937Z,100399.52
2022-08-29T19:23:55.896Z,100401.31
2022-08-29T19:26:28.304Z,100403.08
2022-08-29T19:28:59.288Z,100403.61
2022-08-29T19:31:29.082Z,100401.09
2022-08-29T19:33:58.301Z,100400.41
2022-08-29T19:36:26.790Z,100403.97
2022-08-29T19:38:54.911Z,100403.30
2022-08-29T19:41:23.021Z,100407.10
2022-08-29T19:43:53.499Z,100413.19
2022-08-29T19:46:23.152Z,100410.96
2022-08-29T19:48:52.722Z,100409.98
2022-08-29T19:51:24.772Z,100413.30
2022-08-29T19:53:57.183Z,100412.19
2022-08-29T19:56:26.844Z,100410.36
2022-08-29T19:58:55.100Z,100411.50
2022-08-29T20:01:23.042Z,100416.88
2022-08-29T20:03:50.943Z,100415.13
2022-08-29T20:06:20.903Z,100415.94
2022-08-29T20:08:48.701Z,100415.59
2022-08-29T20:11:21.098Z,100414.08
2022-08-29T20:13:51.897Z,100417.42
2022-08-29T20:16:22.073Z,100417.13
2022-08-29T20:18:50.922Z,100418.20
2022-08-29T20:21:19.651Z,100421.61
2022-08-29T20:23:49.666Z,100416.27
2022-08-29T20:26:20.365Z,100417.50
2022-08-29T20:28:51.548Z,100422.40
2022-08-29T20:31:19.890Z,100424.17
2022-08-29T20:33:48.824Z,100427.45
2022-08-29T20:36:36.681Z,100430.21
2022-08-29T20:39:08.562Z,100437.19
2022-08-29T20:41:36.994Z,100439.33
2022-08-29T20:44:07.648Z,100441.89
2022-08-29T20:46:42.340Z,100440.14
2022-08-29T20:49:12.003Z,100438.31
2022-08-29T20:51:44.519Z,100440.10
2022-08-29T20:54:13.843Z,100440.95
2022-08-29T20:56:41.966Z,100442.42
2022-08-29T20:59:10.549Z,100444.05
2022-08-29T21:01:40.175Z,100448.73
2022-08-29T21:04:26.860Z,100449.66
2022-08-29T21:06:55.888Z,100453.50
2022-08-29T21:09:24.117Z,100460.30
2022-08-29T21:11:52.684Z,100460.89
2022-08-29T21:14:22.518Z,100456.56
2022-08-29T21:16:52.145Z,100458.79
2022-08-29T21:19:20.402Z,100462.09
2022-08-29T21:21:51.157Z,100458.27
2022-08-29T21:24:20.132Z,100458.87
2022-08-29T21:26:48.835Z,100464.69
2022-08-29T21:29:16.967Z,100467.65
2022-08-29T21:31:44.820Z,100466.44
2022-08-29T21:34:13.240Z,100459.70
2022-08-29T21:36:41.883Z,100461.73
2022-08-29T21:39:11.307Z,100452.05
2022-08-29T21:41:42.275Z,100462.77
2022-08-29T21:44:11.856Z,100462.71
2022-08-29T21:46:43.111Z,100464.60
2022-08-29T21:49:17.058Z,100469.25
2022-08-29T21:51:45.877Z,100466.98
2022-08-29T21:54:15.508Z,100468.73
2022-08-29T21:56:44.297Z,100470.23
2022-08-29T21:59:13.221Z,100470.17
2022-08-29T22:01:41.689Z,100465.30
2022-08-29T22:04:19.244Z,100469.16
2022-08-29T22:06:59.326Z,100469.67
2022-08-29T22:09:28.577Z,100469.95
2022-08-29T22:11:56.431Z,100472.98
2022-08-29T22:14:46.903Z,100477.21
2022-08-29T22:17:15.868Z,100476.27
2022-08-29T22:19:43.835Z,100482.07
2022-08-29T22:22:11.524Z,100479.67
2022-08-29T22:24:39.355Z,100481.42
2022-08-29T22:27:07.227Z,100480.84
2022-08-29T22:29:34.966Z,100479.55
2022-08-29T22:32:03.107Z,100481.64
2022-08-29T22:34:30.779Z,100485.28
2022-08-29T22:36:58.455Z,100486.83
2022-08-29T22:39:26.254Z,100490.00
2022-08-29T22:41:55.406Z,100486.61
2022-08-29T22:45:02.299Z,100485.95
2022-08-29T22:47:10.770Z,100488.52
2022-08-29T22:49:40.450Z,100486.30
2022-08-29T22:52:11.537Z,100489.47
2022-08-29T22:54:39.930Z,100487.40
2022-08-29T22:57:10.657Z,100488.27
2022-08-29T22:59:39.324Z,100482.06
2022-08-29T23:02:08.258Z,100481.64
2022-08-29T23:04:37.188Z,100482.11
2022-08-29T23:07:07.290Z,100479.23
2022-08-29T23:09:35.782Z,100478.45
2022-08-29T23:12:07.616Z,100479.79
2022-08-29T23:14:36.269Z,100477.98
2022-08-29T23:17:05.545Z,100477.27
2022-08-29T23:19:33.547Z,100481.73
2022-08-29T23:22:02.331Z,100478.33
2022-08-29T23:24:31.833Z,100475.73
2022-08-29T23:27:00.188Z,100477.86
2022-08-29T23:29:30.945Z,100478.62
2022-08-29T23:31:59.058Z,100469.68
2022-08-29T23:34:27.532Z,100471.20
2022-08-29T23:36:55.248Z,100470.89
2022-08-29T23:39:23.473Z,100472.88
2022-08-29T23:41:51.398Z,100475.02
2022-08-29T23:44:19.193Z,100476.36
2022-08-29T23:46:47.215Z,100472.83
2022-08-29T23:49:14.892Z,100474.02
2022-08-29T23:51:42.632Z,100475.91
2022-08-29T23:54:10.312Z,100475.30
2022-08-29T23:56:38.118Z,100469.61
2022-08-29T23:59:05.820Z,100472.85
